Mijn Webcam Meer informatie Mijn Webcam


webcam facing north-east Meer informatie webcam facing north-east


Regen radar Meer informatie rain snow radar


Bezoek onze andere website:

Template documentation
and downloads

And another site


CBI



METAR rapporten vliegvelden

   
EHGG - Groningen/Eelde
Gewijzigd: 24-06-2017 18:55
Licht bewolkt  
Licht bewolkt  
   Wind: Westen 4,1 m/s
Wind: Westen 4,1 m/s
Temperatuur: 18°C
Dauwpunt: 13°C
Vochtigheid: 73%
Barometer: 1011 hPa
Bewolking: Licht bewolkt
Zicht: More then 10 km
Bewolking: Licht bewolkt 823 m
EHGG 241655Z AUTO 26008KT 230V290 9999 FEW027 18/13 Q1011 NOSIG
EHMA - Schiermonnikoog
Gewijzigd: 24-06-2017 18:55
Bewolking  
Bewolking  
   Wind: WNW 6,7 m/s
Wind: WNW 6,7 m/s
Temperatuur: 16°C
Dauwpunt: 12°C
Vochtigheid: 77%
Barometer: 1011 hPa
Bewolking: Bewolking
Zicht: More then 10 km
Bewolking: Licht bewolkt 670,6 m,
Bewolking 792,5 m
EHMA 241655Z AUTO 29013KT 9999 FEW022 OVC026 16/12 Q1011
EHMG - Terschelling
Gewijzigd: 24-06-2017 18:55
Grotendeels bewolkt  
Grotendeels bewolkt  
   Wind: ZW 6,2 m/s
Wind: ZW 6,2 m/s
Temperatuur: 15°C
Dauwpunt: 12°C
Vochtigheid: 82%
Barometer: 1010 hPa
Bewolking: Grotendeels bewolkt
Zicht: More then 10 km
Bewolking: Gedeeltelijk bewolkt 670,6 m,
Grotendeels bewolkt 792,5 m
EHMG 241655Z AUTO 23012KT 9999 SCT022 BKN026 15/12 Q1010
EHVL - Vlieland
Gewijzigd: 24-06-2017 18:55
Bewolking  
Bewolking  
   Wind: WZW 7,7 m/s
Wind: WZW 7,7 m/s
Temperatuur: 17°C
Dauwpunt: 15°C
Vochtigheid: 88%
Barometer: 1011 hPa
Bewolking: Bewolking
Zicht: More then 10 km
Bewolking: Grotendeels bewolkt 274,3 m,
Bewolking 304,8 m
EHVL 241655Z AUTO 24015KT 9999 BKN009 OVC010 17/15 Q1011 GRN
ETWM - Meppen, Germany
Gewijzigd: 24-06-2017 19:20
  
  
   Wind: varieert 1,5 m/s
Wind: varieert 1,5 m/s
Temperatuur: 17°C
Dauwpunt: 15°C
Vochtigheid: 88%
Barometer: 1012 hPa
Zicht: More then 10 km
ETWM 241720Z AUTO VRB03KT 9999 // ////// 17/15 Q1012 ///
 

Script ontwikkeld door  Saratoga-weather.org Aangepast voor de template door  Weerstation Leuven

U vindt ons ook hier:

Het Weer Aktueel

UK Metoffice

European Weather Network

WeatherCloud

Weather Underground

Benelux Weer Netwerk

AWEKAS

WeatherlinkIP

HAMweather, WeatherForYou, PWS Weather

Apparatuur in gebruik:

Weerstation
Davis VP2 Plus

Weerprogramma
Cumulus

Weercomputer
ASUS Eee Box B202

Webleverancier
Antagonist

Davis VP2 Plus

Cumulus

ASUS Eee Box B202

Antagonist